sensor_id;sensor_type;location;lat;lon;timestamp;P1;durP1;ratioP1;P2;durP2;ratioP2
48205;SDS011;33995;48.202;16.260;2022-11-20T00:01:31;25.87;;;19.20;;
48205;SDS011;33995;48.202;16.260;2022-11-20T00:04:01;26.87;;;19.17;;
48205;SDS011;33995;48.202;16.260;2022-11-20T00:06:30;28.53;;;20.40;;
48205;SDS011;33995;48.202;16.260;2022-11-20T00:09:00;25.87;;;19.77;;
48205;SDS011;33995;48.202;16.260;2022-11-20T00:11:30;26.97;;;20.13;;
48205;SDS011;33995;48.202;16.260;2022-11-20T00:14:00;25.93;;;19.33;;
48205;SDS011;33995;48.202;16.260;2022-11-20T00:16:30;24.73;;;19.20;;
48205;SDS011;33995;48.202;16.260;2022-11-20T00:19:06;25.90;;;19.57;;
48205;SDS011;33995;48.202;16.260;2022-11-20T00:21:35;25.10;;;19.07;;
48205;SDS011;33995;48.202;16.260;2022-11-20T00:24:02;26.23;;;19.40;;
48205;SDS011;33995;48.202;16.260;2022-11-20T00:26:30;25.77;;;20.27;;
48205;SDS011;33995;48.202;16.260;2022-11-20T00:28:59;24.00;;;19.07;;
48205;SDS011;33995;48.202;16.260;2022-11-20T00:31:29;26.33;;;19.77;;
48205;SDS011;33995;48.202;16.260;2022-11-20T00:33:57;24.90;;;19.57;;
48205;SDS011;33995;48.202;16.260;2022-11-20T00:36:25;26.60;;;20.53;;
48205;SDS011;33995;48.202;16.260;2022-11-20T00:38:55;24.30;;;19.20;;
48205;SDS011;33995;48.202;16.260;2022-11-20T00:41:24;26.93;;;19.63;;
48205;SDS011;33995;48.202;16.260;2022-11-20T00:43:55;24.73;;;18.60;;
48205;SDS011;33995;48.202;16.260;2022-11-20T00:46:26;25.90;;;19.20;;
48205;SDS011;33995;48.202;16.260;2022-11-20T00:48:57;25.50;;;18.87;;
48205;SDS011;33995;48.202;16.260;2022-11-20T00:51:32;26.27;;;20.17;;
48205;SDS011;33995;48.202;16.260;2022-11-20T00:54:05;25.07;;;19.30;;
48205;SDS011;33995;48.202;16.260;2022-11-20T00:56:33;25.83;;;19.27;;
48205;SDS011;33995;48.202;16.260;2022-11-20T00:59:01;25.17;;;19.70;;
48205;SDS011;33995;48.202;16.260;2022-11-20T01:01:31;25.20;;;19.10;;
48205;SDS011;33995;48.202;16.260;2022-11-20T01:04:00;26.17;;;19.33;;
48205;SDS011;33995;48.202;16.260;2022-11-20T01:06:32;25.77;;;19.37;;
48205;SDS011;33995;48.202;16.260;2022-11-20T01:09:03;27.17;;;19.77;;
48205;SDS011;33995;48.202;16.260;2022-11-20T01:11:37;26.27;;;20.00;;
48205;SDS011;33995;48.202;16.260;2022-11-20T01:14:07;24.57;;;18.50;;
48205;SDS011;33995;48.202;16.260;2022-11-20T01:16:41;25.43;;;18.90;;
48205;SDS011;33995;48.202;16.260;2022-11-20T01:19:11;25.37;;;19.17;;
48205;SDS011;33995;48.202;16.260;2022-11-20T01:21:44;25.30;;;19.60;;
48205;SDS011;33995;48.202;16.260;2022-11-20T01:24:15;25.43;;;19.03;;
48205;SDS011;33995;48.202;16.260;2022-11-20T01:26:44;28.10;;;20.30;;
48205;SDS011;33995;48.202;16.260;2022-11-20T01:29:19;25.07;;;19.53;;
48205;SDS011;33995;48.202;16.260;2022-11-20T01:31:48;26.10;;;19.30;;
48205;SDS011;33995;48.202;16.260;2022-11-20T01:34:16;25.50;;;18.83;;
48205;SDS011;33995;48.202;16.260;2022-11-20T01:36:46;25.40;;;19.33;;
48205;SDS011;33995;48.202;16.260;2022-11-20T01:39:16;24.43;;;19.33;;
48205;SDS011;33995;48.202;16.260;2022-11-20T01:41:52;25.70;;;19.17;;
48205;SDS011;33995;48.202;16.260;2022-11-20T01:50:10;23.63;;;18.57;;
48205;SDS011;33995;48.202;16.260;2022-11-20T01:52:46;23.87;;;18.43;;
48205;SDS011;33995;48.202;16.260;2022-11-20T01:55:22;26.10;;;20.13;;
48205;SDS011;33995;48.202;16.260;2022-11-20T01:57:54;25.40;;;19.57;;
48205;SDS011;33995;48.202;16.260;2022-11-20T02:00:22;24.27;;;18.43;;
48205;SDS011;33995;48.202;16.260;2022-11-20T02:02:57;24.30;;;18.77;;
48205;SDS011;33995;48.202;16.260;2022-11-20T02:05:35;24.07;;;18.97;;
48205;SDS011;33995;48.202;16.260;2022-11-20T02:08:06;23.17;;;18.17;;
48205;SDS011;33995;48.202;16.260;2022-11-20T02:10:35;27.17;;;18.73;;
48205;SDS011;33995;48.202;16.260;2022-11-20T02:13:03;24.53;;;18.70;;
48205;SDS011;33995;48.202;16.260;2022-11-20T02:15:50;26.03;;;19.43;;
48205;SDS011;33995;48.202;16.260;2022-11-20T02:18:19;25.87;;;19.27;;
48205;SDS011;33995;48.202;16.260;2022-11-20T02:20:49;25.43;;;18.93;;
48205;SDS011;33995;48.202;16.260;2022-11-20T02:25:54;23.90;;;19.17;;
48205;SDS011;33995;48.202;16.260;2022-11-20T02:28:25;24.33;;;18.60;;
48205;SDS011;33995;48.202;16.260;2022-11-20T02:30:53;26.67;;;19.90;;
48205;SDS011;33995;48.202;16.260;2022-11-20T02:33:21;24.80;;;19.10;;
48205;SDS011;33995;48.202;16.260;2022-11-20T02:35:48;27.50;;;20.37;;
48205;SDS011;33995;48.202;16.260;2022-11-20T02:38:15;28.30;;;21.13;;
48205;SDS011;33995;48.202;16.260;2022-11-20T02:40:43;28.40;;;20.50;;
48205;SDS011;33995;48.202;16.260;2022-11-20T02:43:10;27.10;;;20.40;;
48205;SDS011;33995;48.202;16.260;2022-11-20T02:45:39;30.33;;;21.50;;
48205;SDS011;33995;48.202;16.260;2022-11-20T02:48:07;28.70;;;20.53;;
48205;SDS011;33995;48.202;16.260;2022-11-20T02:50:39;28.67;;;20.97;;
48205;SDS011;33995;48.202;16.260;2022-11-20T02:53:07;28.07;;;20.93;;
48205;SDS011;33995;48.202;16.260;2022-11-20T02:55:36;29.10;;;20.87;;
48205;SDS011;33995;48.202;16.260;2022-11-20T02:58:04;31.23;;;21.17;;
48205;SDS011;33995;48.202;16.260;2022-11-20T03:00:32;27.60;;;20.13;;
48205;SDS011;33995;48.202;16.260;2022-11-20T03:02:59;30.07;;;21.30;;
48205;SDS011;33995;48.202;16.260;2022-11-20T03:05:27;28.03;;;20.67;;
48205;SDS011;33995;48.202;16.260;2022-11-20T03:07:54;30.47;;;21.67;;
48205;SDS011;33995;48.202;16.260;2022-11-20T03:10:22;28.27;;;20.90;;
48205;SDS011;33995;48.202;16.260;2022-11-20T03:12:55;30.93;;;22.00;;
48205;SDS011;33995;48.202;16.260;2022-11-20T03:15:23;30.80;;;21.53;;
48205;SDS011;33995;48.202;16.260;2022-11-20T03:17:54;29.43;;;21.70;;
48205;SDS011;33995;48.202;16.260;2022-11-20T03:20:22;31.13;;;22.03;;
48205;SDS011;33995;48.202;16.260;2022-11-20T03:22:50;27.87;;;20.80;;
48205;SDS011;33995;48.202;16.260;2022-11-20T03:25:20;30.40;;;21.70;;
48205;SDS011;33995;48.202;16.260;2022-11-20T03:27:48;31.80;;;22.47;;
48205;SDS011;33995;48.202;16.260;2022-11-20T03:30:15;30.93;;;22.43;;
48205;SDS011;33995;48.202;16.260;2022-11-20T03:32:43;31.00;;;21.30;;
48205;SDS011;33995;48.202;16.260;2022-11-20T03:35:11;29.97;;;21.40;;
48205;SDS011;33995;48.202;16.260;2022-11-20T03:37:39;30.03;;;21.63;;
48205;SDS011;33995;48.202;16.260;2022-11-20T03:40:08;27.00;;;20.47;;
48205;SDS011;33995;48.202;16.260;2022-11-20T03:42:36;31.57;;;22.10;;
48205;SDS011;33995;48.202;16.260;2022-11-20T03:45:16;28.20;;;21.30;;
48205;SDS011;33995;48.202;16.260;2022-11-20T03:47:45;28.53;;;20.60;;
48205;SDS011;33995;48.202;16.260;2022-11-20T03:50:13;29.67;;;21.23;;
48205;SDS011;33995;48.202;16.260;2022-11-20T03:52:41;26.93;;;20.37;;
48205;SDS011;33995;48.202;16.260;2022-11-20T03:55:09;29.13;;;21.60;;
48205;SDS011;33995;48.202;16.260;2022-11-20T03:57:38;28.83;;;21.03;;
48205;SDS011;33995;48.202;16.260;2022-11-20T04:00:06;27.50;;;21.13;;
48205;SDS011;33995;48.202;16.260;2022-11-20T04:02:33;27.63;;;20.33;;
48205;SDS011;33995;48.202;16.260;2022-11-20T04:05:01;29.63;;;21.43;;
48205;SDS011;33995;48.202;16.260;2022-11-20T04:07:28;27.40;;;20.40;;
48205;SDS011;33995;48.202;16.260;2022-11-20T04:09:56;28.13;;;21.10;;
48205;SDS011;33995;48.202;16.260;2022-11-20T04:12:23;30.77;;;21.63;;
48205;SDS011;33995;48.202;16.260;2022-11-20T04:14:50;28.27;;;21.87;;
48205;SDS011;33995;48.202;16.260;2022-11-20T04:17:18;30.70;;;21.43;;
48205;SDS011;33995;48.202;16.260;2022-11-20T04:19:45;28.33;;;21.43;;
48205;SDS011;33995;48.202;16.260;2022-11-20T04:22:12;29.10;;;21.80;;
48205;SDS011;33995;48.202;16.260;2022-11-20T04:24:40;30.00;;;21.57;;
48205;SDS011;33995;48.202;16.260;2022-11-20T04:27:08;31.57;;;22.07;;
48205;SDS011;33995;48.202;16.260;2022-11-20T04:29:36;28.53;;;21.10;;
48205;SDS011;33995;48.202;16.260;2022-11-20T04:32:03;31.20;;;23.20;;
48205;SDS011;33995;48.202;16.260;2022-11-20T04:34:30;29.63;;;21.60;;
48205;SDS011;33995;48.202;16.260;2022-11-20T04:36:58;29.70;;;21.27;;
48205;SDS011;33995;48.202;16.260;2022-11-20T04:39:25;30.00;;;21.87;;
48205;SDS011;33995;48.202;16.260;2022-11-20T04:41:53;31.37;;;21.57;;
48205;SDS011;33995;48.202;16.260;2022-11-20T04:44:40;29.77;;;22.17;;
48205;SDS011;33995;48.202;16.260;2022-11-20T04:47:08;32.20;;;21.90;;
48205;SDS011;33995;48.202;16.260;2022-11-20T04:49:37;29.43;;;21.93;;
48205;SDS011;33995;48.202;16.260;2022-11-20T04:52:05;29.60;;;21.37;;
48205;SDS011;33995;48.202;16.260;2022-11-20T04:54:32;30.30;;;21.73;;
48205;SDS011;33995;48.202;16.260;2022-11-20T04:57:00;29.83;;;22.03;;
48205;SDS011;33995;48.202;16.260;2022-11-20T04:59:27;32.60;;;22.00;;
48205;SDS011;33995;48.202;16.260;2022-11-20T05:01:56;29.73;;;21.60;;
48205;SDS011;33995;48.202;16.260;2022-11-20T05:04:23;29.33;;;21.73;;
48205;SDS011;33995;48.202;16.260;2022-11-20T05:06:51;30.97;;;22.67;;
48205;SDS011;33995;48.202;16.260;2022-11-20T05:09:18;31.17;;;21.70;;
48205;SDS011;33995;48.202;16.260;2022-11-20T05:11:46;29.50;;;21.20;;
48205;SDS011;33995;48.202;16.260;2022-11-20T05:14:17;30.00;;;21.10;;
48205;SDS011;33995;48.202;16.260;2022-11-20T05:16:45;30.63;;;22.07;;
48205;SDS011;33995;48.202;16.260;2022-11-20T05:19:13;27.87;;;21.10;;
48205;SDS011;33995;48.202;16.260;2022-11-20T05:21:40;29.77;;;22.30;;
48205;SDS011;33995;48.202;16.260;2022-11-20T05:24:07;29.77;;;22.13;;
48205;SDS011;33995;48.202;16.260;2022-11-20T05:26:35;30.73;;;21.80;;
48205;SDS011;33995;48.202;16.260;2022-11-20T05:29:02;30.20;;;21.67;;
48205;SDS011;33995;48.202;16.260;2022-11-20T05:31:30;27.97;;;21.03;;
48205;SDS011;33995;48.202;16.260;2022-11-20T05:33:58;28.23;;;21.30;;
48205;SDS011;33995;48.202;16.260;2022-11-20T05:36:27;33.83;;;23.37;;
48205;SDS011;33995;48.202;16.260;2022-11-20T05:38:55;33.93;;;23.27;;
48205;SDS011;33995;48.202;16.260;2022-11-20T05:41:29;33.83;;;24.43;;
48205;SDS011;33995;48.202;16.260;2022-11-20T05:43:57;33.77;;;23.03;;
48205;SDS011;33995;48.202;16.260;2022-11-20T05:46:25;29.80;;;21.83;;
48205;SDS011;33995;48.202;16.260;2022-11-20T05:48:56;29.83;;;22.27;;
48205;SDS011;33995;48.202;16.260;2022-11-20T05:51:25;31.00;;;22.47;;
48205;SDS011;33995;48.202;16.260;2022-11-20T05:53:58;30.67;;;22.37;;
48205;SDS011;33995;48.202;16.260;2022-11-20T05:56:26;30.93;;;22.03;;
48205;SDS011;33995;48.202;16.260;2022-11-20T05:58:54;30.03;;;21.43;;
48205;SDS011;33995;48.202;16.260;2022-11-20T06:01:23;29.97;;;22.07;;
48205;SDS011;33995;48.202;16.260;2022-11-20T06:03:52;33.10;;;23.03;;
48205;SDS011;33995;48.202;16.260;2022-11-20T06:06:21;29.43;;;21.70;;
48205;SDS011;33995;48.202;16.260;2022-11-20T06:08:49;29.27;;;21.67;;
48205;SDS011;33995;48.202;16.260;2022-11-20T06:11:16;28.50;;;22.13;;
48205;SDS011;33995;48.202;16.260;2022-11-20T06:13:45;29.37;;;21.80;;
48205;SDS011;33995;48.202;16.260;2022-11-20T06:16:15;30.90;;;22.67;;
48205;SDS011;33995;48.202;16.260;2022-11-20T06:18:44;32.93;;;22.97;;
48205;SDS011;33995;48.202;16.260;2022-11-20T06:21:13;32.90;;;23.67;;
48205;SDS011;33995;48.202;16.260;2022-11-20T06:23:45;34.23;;;23.63;;
48205;SDS011;33995;48.202;16.260;2022-11-20T06:26:14;32.07;;;23.03;;
48205;SDS011;33995;48.202;16.260;2022-11-20T06:28:46;33.63;;;23.60;;
48205;SDS011;33995;48.202;16.260;2022-11-20T06:31:14;33.27;;;23.70;;
48205;SDS011;33995;48.202;16.260;2022-11-20T06:33:44;33.03;;;24.23;;
48205;SDS011;33995;48.202;16.260;2022-11-20T06:36:12;36.60;;;24.30;;
48205;SDS011;33995;48.202;16.260;2022-11-20T06:38:41;35.53;;;24.57;;
48205;SDS011;33995;48.202;16.260;2022-11-20T06:41:10;33.90;;;24.67;;
48205;SDS011;33995;48.202;16.260;2022-11-20T06:43:48;34.03;;;23.60;;
48205;SDS011;33995;48.202;16.260;2022-11-20T06:46:16;36.43;;;25.13;;
48205;SDS011;33995;48.202;16.260;2022-11-20T06:48:48;34.47;;;24.27;;
48205;SDS011;33995;48.202;16.260;2022-11-20T06:51:16;36.73;;;24.40;;
48205;SDS011;33995;48.202;16.260;2022-11-20T06:53:44;34.07;;;23.37;;
48205;SDS011;33995;48.202;16.260;2022-11-20T06:56:12;34.23;;;24.67;;
48205;SDS011;33995;48.202;16.260;2022-11-20T06:58:39;36.23;;;24.07;;
48205;SDS011;33995;48.202;16.260;2022-11-20T07:01:09;36.53;;;24.20;;
48205;SDS011;33995;48.202;16.260;2022-11-20T07:03:38;36.53;;;24.53;;
48205;SDS011;33995;48.202;16.260;2022-11-20T07:06:06;33.23;;;23.30;;
48205;SDS011;33995;48.202;16.260;2022-11-20T07:08:34;33.87;;;23.50;;
48205;SDS011;33995;48.202;16.260;2022-11-20T07:11:05;35.63;;;24.17;;
48205;SDS011;33995;48.202;16.260;2022-11-20T07:13:33;34.40;;;23.20;;
48205;SDS011;33995;48.202;16.260;2022-11-20T07:16:05;33.10;;;23.30;;
48205;SDS011;33995;48.202;16.260;2022-11-20T07:18:34;35.30;;;23.67;;
48205;SDS011;33995;48.202;16.260;2022-11-20T07:21:05;36.97;;;24.33;;
48205;SDS011;33995;48.202;16.260;2022-11-20T07:23:34;35.13;;;24.50;;
48205;SDS011;33995;48.202;16.260;2022-11-20T07:26:08;34.17;;;24.17;;
48205;SDS011;33995;48.202;16.260;2022-11-20T07:28:37;33.90;;;23.53;;
48205;SDS011;33995;48.202;16.260;2022-11-20T07:31:05;34.47;;;24.50;;
48205;SDS011;33995;48.202;16.260;2022-11-20T07:33:34;36.03;;;23.70;;
48205;SDS011;33995;48.202;16.260;2022-11-20T07:36:04;32.80;;;23.27;;
48205;SDS011;33995;48.202;16.260;2022-11-20T07:38:34;36.93;;;25.07;;
48205;SDS011;33995;48.202;16.260;2022-11-20T07:41:04;33.53;;;23.53;;
48205;SDS011;33995;48.202;16.260;2022-11-20T07:43:32;36.90;;;25.00;;
48205;SDS011;33995;48.202;16.260;2022-11-20T07:46:07;37.67;;;25.73;;
48205;SDS011;33995;48.202;16.260;2022-11-20T07:48:35;35.10;;;24.77;;
48205;SDS011;33995;48.202;16.260;2022-11-20T07:51:03;34.20;;;24.87;;
48205;SDS011;33995;48.202;16.260;2022-11-20T07:53:33;35.40;;;25.03;;
48205;SDS011;33995;48.202;16.260;2022-11-20T07:56:01;37.13;;;24.77;;
48205;SDS011;33995;48.202;16.260;2022-11-20T07:58:29;36.77;;;25.37;;
48205;SDS011;33995;48.202;16.260;2022-11-20T08:01:04;36.37;;;25.17;;
48205;SDS011;33995;48.202;16.260;2022-11-20T08:03:34;37.10;;;24.93;;
48205;SDS011;33995;48.202;16.260;2022-11-20T08:06:04;34.93;;;24.47;;
48205;SDS011;33995;48.202;16.260;2022-11-20T08:08:33;36.73;;;24.70;;
48205;SDS011;33995;48.202;16.260;2022-11-20T08:11:09;37.27;;;25.03;;
48205;SDS011;33995;48.202;16.260;2022-11-20T08:13:55;38.70;;;26.23;;
48205;SDS011;33995;48.202;16.260;2022-11-20T08:16:43;35.00;;;24.50;;
48205;SDS011;33995;48.202;16.260;2022-11-20T08:19:16;38.40;;;26.23;;
48205;SDS011;33995;48.202;16.260;2022-11-20T08:21:44;36.03;;;24.60;;
48205;SDS011;33995;48.202;16.260;2022-11-20T08:24:12;37.87;;;25.90;;
48205;SDS011;33995;48.202;16.260;2022-11-20T08:26:40;36.40;;;25.03;;
48205;SDS011;33995;48.202;16.260;2022-11-20T08:29:07;37.10;;;25.23;;
48205;SDS011;33995;48.202;16.260;2022-11-20T08:31:35;37.03;;;24.70;;
48205;SDS011;33995;48.202;16.260;2022-11-20T08:34:04;36.23;;;25.60;;
48205;SDS011;33995;48.202;16.260;2022-11-20T08:36:35;33.87;;;24.87;;
48205;SDS011;33995;48.202;16.260;2022-11-20T08:39:03;35.57;;;25.17;;
48205;SDS011;33995;48.202;16.260;2022-11-20T08:41:30;34.17;;;24.97;;
48205;SDS011;33995;48.202;16.260;2022-11-20T08:44:05;34.50;;;24.97;;
48205;SDS011;33995;48.202;16.260;2022-11-20T08:46:35;34.97;;;25.67;;
48205;SDS011;33995;48.202;16.260;2022-11-20T08:49:07;35.27;;;25.67;;
48205;SDS011;33995;48.202;16.260;2022-11-20T08:51:36;41.00;;;30.30;;
48205;SDS011;33995;48.202;16.260;2022-11-20T08:54:08;48.37;;;33.87;;
48205;SDS011;33995;48.202;16.260;2022-11-20T08:56:37;41.90;;;30.47;;
48205;SDS011;33995;48.202;16.260;2022-11-20T08:59:08;41.67;;;30.10;;
48205;SDS011;33995;48.202;16.260;2022-11-20T09:01:58;37.23;;;26.83;;
48205;SDS011;33995;48.202;16.260;2022-11-20T09:04:26;35.87;;;25.93;;
48205;SDS011;33995;48.202;16.260;2022-11-20T09:06:53;36.03;;;26.10;;
48205;SDS011;33995;48.202;16.260;2022-11-20T09:09:20;36.93;;;26.23;;
48205;SDS011;33995;48.202;16.260;2022-11-20T09:11:48;37.83;;;26.70;;
48205;SDS011;33995;48.202;16.260;2022-11-20T09:14:17;35.57;;;26.17;;
48205;SDS011;33995;48.202;16.260;2022-11-20T09:16:44;31.03;;;23.67;;
48205;SDS011;33995;48.202;16.260;2022-11-20T09:19:13;36.23;;;26.13;;
48205;SDS011;33995;48.202;16.260;2022-11-20T09:22:02;35.27;;;25.10;;
48205;SDS011;33995;48.202;16.260;2022-11-20T09:24:29;36.57;;;25.57;;
48205;SDS011;33995;48.202;16.260;2022-11-20T09:26:57;32.37;;;23.93;;
48205;SDS011;33995;48.202;16.260;2022-11-20T09:29:24;36.10;;;25.70;;
48205;SDS011;33995;48.202;16.260;2022-11-20T09:31:51;33.53;;;25.40;;
48205;SDS011;33995;48.202;16.260;2022-11-20T09:34:19;33.77;;;25.50;;
48205;SDS011;33995;48.202;16.260;2022-11-20T09:36:46;33.90;;;25.73;;
48205;SDS011;33995;48.202;16.260;2022-11-20T09:39:14;33.97;;;25.63;;
48205;SDS011;33995;48.202;16.260;2022-11-20T09:49:49;35.17;;;26.17;;
48205;SDS011;33995;48.202;16.260;2022-11-20T09:55:13;33.07;;;24.60;;
48205;SDS011;33995;48.202;16.260;2022-11-20T09:57:44;33.60;;;25.93;;
48205;SDS011;33995;48.202;16.260;2022-11-20T10:00:14;31.27;;;24.57;;
48205;SDS011;33995;48.202;16.260;2022-11-20T10:03:01;34.67;;;25.73;;
48205;SDS011;33995;48.202;16.260;2022-11-20T10:06:00;34.77;;;25.73;;
48205;SDS011;33995;48.202;16.260;2022-11-20T10:08:35;37.20;;;27.20;;
48205;SDS011;33995;48.202;16.260;2022-11-20T10:11:20;36.43;;;27.10;;
48205;SDS011;33995;48.202;16.260;2022-11-20T10:16:56;35.17;;;26.13;;
48205;SDS011;33995;48.202;16.260;2022-11-20T10:19:51;37.33;;;29.02;;
48205;SDS011;33995;48.202;16.260;2022-11-20T10:31:35;36.07;;;26.47;;
48205;SDS011;33995;48.202;16.260;2022-11-20T10:36:56;33.90;;;26.20;;
48205;SDS011;33995;48.202;16.260;2022-11-20T10:43:16;37.53;;;27.40;;
48205;SDS011;33995;48.202;16.260;2022-11-20T10:48:31;36.33;;;26.83;;
48205;SDS011;33995;48.202;16.260;2022-11-20T10:59:27;33.67;;;25.90;;
48205;SDS011;33995;48.202;16.260;2022-11-20T11:02:24;34.90;;;26.50;;
48205;SDS011;33995;48.202;16.260;2022-11-20T11:04:59;34.77;;;26.83;;
48205;SDS011;33995;48.202;16.260;2022-11-20T11:07:40;38.00;;;28.27;;
48205;SDS011;33995;48.202;16.260;2022-11-20T11:12:52;36.00;;;26.73;;
48205;SDS011;33995;48.202;16.260;2022-11-20T11:15:39;34.90;;;26.83;;
48205;SDS011;33995;48.202;16.260;2022-11-20T11:18:10;36.83;;;28.27;;
48205;SDS011;33995;48.202;16.260;2022-11-20T11:20:38;36.13;;;27.13;;
48205;SDS011;33995;48.202;16.260;2022-11-20T11:23:10;34.23;;;26.87;;
48205;SDS011;33995;48.202;16.260;2022-11-20T11:26:21;36.77;;;27.77;;
48205;SDS011;33995;48.202;16.260;2022-11-20T11:29:00;36.50;;;27.30;;
48205;SDS011;33995;48.202;16.260;2022-11-20T11:31:30;35.77;;;27.20;;
48205;SDS011;33995;48.202;16.260;2022-11-20T11:34:05;35.17;;;27.40;;
48205;SDS011;33995;48.202;16.260;2022-11-20T11:36:39;36.33;;;27.20;;
48205;SDS011;33995;48.202;16.260;2022-11-20T11:39:11;32.77;;;25.13;;
48205;SDS011;33995;48.202;16.260;2022-11-20T11:41:43;35.13;;;27.27;;
48205;SDS011;33995;48.202;16.260;2022-11-20T11:44:21;34.67;;;27.47;;
48205;SDS011;33995;48.202;16.260;2022-11-20T11:47:35;33.73;;;25.97;;
48205;SDS011;33995;48.202;16.260;2022-11-20T11:50:18;34.67;;;26.20;;
48205;SDS011;33995;48.202;16.260;2022-11-20T11:52:50;33.40;;;25.57;;
48205;SDS011;33995;48.202;16.260;2022-11-20T11:58:13;32.53;;;24.63;;
48205;SDS011;33995;48.202;16.260;2022-11-20T12:04:00;32.87;;;25.47;;
48205;SDS011;33995;48.202;16.260;2022-11-20T12:06:47;32.07;;;24.13;;
48205;SDS011;33995;48.202;16.260;2022-11-20T12:09:18;29.10;;;23.93;;
48205;SDS011;33995;48.202;16.260;2022-11-20T12:12:08;29.67;;;24.50;;
48205;SDS011;33995;48.202;16.260;2022-11-20T12:14:46;29.13;;;25.17;;
48205;SDS011;33995;48.202;16.260;2022-11-20T12:17:17;28.43;;;25.33;;
48205;SDS011;33995;48.202;16.260;2022-11-20T12:19:44;29.40;;;25.67;;
48205;SDS011;33995;48.202;16.260;2022-11-20T12:30:41;30.90;;;26.10;;
48205;SDS011;33995;48.202;16.260;2022-11-20T12:36:56;29.20;;;24.93;;
48205;SDS011;33995;48.202;16.260;2022-11-20T12:39:35;30.80;;;25.60;;
48205;SDS011;33995;48.202;16.260;2022-11-20T12:45:28;31.20;;;25.37;;
48205;SDS011;33995;48.202;16.260;2022-11-20T12:54:32;32.97;;;27.27;;
48205;SDS011;33995;48.202;16.260;2022-11-20T13:00:11;34.80;;;24.57;;
48205;SDS011;33995;48.202;16.260;2022-11-20T13:02:54;31.10;;;24.80;;
48205;SDS011;33995;48.202;16.260;2022-11-20T13:08:43;30.60;;;24.57;;
48205;SDS011;33995;48.202;16.260;2022-11-20T13:11:40;28.03;;;22.53;;
48205;SDS011;33995;48.202;16.260;2022-11-20T13:19:34;26.73;;;22.10;;
48205;SDS011;33995;48.202;16.260;2022-11-20T13:22:04;27.63;;;23.17;;
48205;SDS011;33995;48.202;16.260;2022-11-20T13:24:32;27.67;;;23.17;;
48205;SDS011;33995;48.202;16.260;2022-11-20T13:27:04;26.40;;;22.30;;
48205;SDS011;33995;48.202;16.260;2022-11-20T13:29:36;26.90;;;22.57;;
48205;SDS011;33995;48.202;16.260;2022-11-20T13:34:51;22.50;;;19.93;;
48205;SDS011;33995;48.202;16.260;2022-11-20T13:37:24;22.37;;;19.77;;
48205;SDS011;33995;48.202;16.260;2022-11-20T13:39:52;23.13;;;19.93;;
48205;SDS011;33995;48.202;16.260;2022-11-20T13:42:35;23.93;;;20.17;;
48205;SDS011;33995;48.202;16.260;2022-11-20T13:45:26;24.57;;;21.37;;
48205;SDS011;33995;48.202;16.260;2022-11-20T13:48:02;26.23;;;22.40;;
48205;SDS011;33995;48.202;16.260;2022-11-20T13:50:50;27.33;;;23.70;;
48205;SDS011;33995;48.202;16.260;2022-11-20T13:59:26;30.23;;;24.83;;
48205;SDS011;33995;48.202;16.260;2022-11-20T14:02:14;29.90;;;24.70;;
48205;SDS011;33995;48.202;16.260;2022-11-20T14:04:46;28.93;;;23.30;;
48205;SDS011;33995;48.202;16.260;2022-11-20T14:07:17;28.03;;;23.97;;
48205;SDS011;33995;48.202;16.260;2022-11-20T14:09:54;30.50;;;23.87;;
48205;SDS011;33995;48.202;16.260;2022-11-20T14:12:28;28.97;;;24.30;;
48205;SDS011;33995;48.202;16.260;2022-11-20T14:15:00;30.47;;;24.67;;
48205;SDS011;33995;48.202;16.260;2022-11-20T14:20:11;30.77;;;24.97;;
48205;SDS011;33995;48.202;16.260;2022-11-20T14:22:47;27.30;;;23.60;;
48205;SDS011;33995;48.202;16.260;2022-11-20T14:25:23;29.13;;;24.60;;
48205;SDS011;33995;48.202;16.260;2022-11-20T14:27:58;31.17;;;24.27;;
48205;SDS011;33995;48.202;16.260;2022-11-20T14:33:06;29.33;;;24.00;;
48205;SDS011;33995;48.202;16.260;2022-11-20T14:35:46;30.97;;;24.23;;
48205;SDS011;33995;48.202;16.260;2022-11-20T14:38:17;32.10;;;25.03;;
48205;SDS011;33995;48.202;16.260;2022-11-20T14:40:49;30.23;;;24.57;;
48205;SDS011;33995;48.202;16.260;2022-11-20T14:51:08;33.77;;;26.23;;
48205;SDS011;33995;48.202;16.260;2022-11-20T14:53:38;31.10;;;24.70;;
48205;SDS011;33995;48.202;16.260;2022-11-20T14:56:08;32.73;;;25.03;;
48205;SDS011;33995;48.202;16.260;2022-11-20T14:58:37;32.23;;;25.63;;
48205;SDS011;33995;48.202;16.260;2022-11-20T15:01:06;32.77;;;25.10;;
48205;SDS011;33995;48.202;16.260;2022-11-20T15:03:38;32.67;;;24.60;;
48205;SDS011;33995;48.202;16.260;2022-11-20T15:06:10;30.87;;;24.20;;
48205;SDS011;33995;48.202;16.260;2022-11-20T15:08:39;30.63;;;25.30;;
48205;SDS011;33995;48.202;16.260;2022-11-20T15:11:19;31.10;;;25.57;;
48205;SDS011;33995;48.202;16.260;2022-11-20T15:13:52;32.70;;;25.50;;
48205;SDS011;33995;48.202;16.260;2022-11-20T15:16:21;31.93;;;25.10;;
48205;SDS011;33995;48.202;16.260;2022-11-20T15:18:51;32.93;;;25.13;;
48205;SDS011;33995;48.202;16.260;2022-11-20T15:21:19;32.00;;;25.10;;
48205;SDS011;33995;48.202;16.260;2022-11-20T15:23:48;32.40;;;25.47;;
48205;SDS011;33995;48.202;16.260;2022-11-20T15:26:24;36.30;;;26.63;;
48205;SDS011;33995;48.202;16.260;2022-11-20T15:28:53;32.07;;;25.63;;
48205;SDS011;33995;48.202;16.260;2022-11-20T15:31:22;32.73;;;25.43;;
48205;SDS011;33995;48.202;16.260;2022-11-20T15:33:51;33.03;;;26.50;;
48205;SDS011;33995;48.202;16.260;2022-11-20T15:36:20;33.13;;;25.33;;
48205;SDS011;33995;48.202;16.260;2022-11-20T15:38:48;33.17;;;25.77;;
48205;SDS011;33995;48.202;16.260;2022-11-20T15:41:17;33.87;;;25.23;;
48205;SDS011;33995;48.202;16.260;2022-11-20T15:43:46;32.17;;;25.40;;
48205;SDS011;33995;48.202;16.260;2022-11-20T15:46:16;33.03;;;25.57;;
48205;SDS011;33995;48.202;16.260;2022-11-20T15:48:54;32.23;;;25.67;;
48205;SDS011;33995;48.202;16.260;2022-11-20T15:51:27;35.47;;;27.20;;
48205;SDS011;33995;48.202;16.260;2022-11-20T15:53:57;33.87;;;26.80;;
48205;SDS011;33995;48.202;16.260;2022-11-20T15:56:26;33.83;;;26.57;;
48205;SDS011;33995;48.202;16.260;2022-11-20T15:58:54;35.97;;;27.13;;
48205;SDS011;33995;48.202;16.260;2022-11-20T16:01:22;36.87;;;29.27;;
48205;SDS011;33995;48.202;16.260;2022-11-20T16:03:50;37.17;;;28.13;;
48205;SDS011;33995;48.202;16.260;2022-11-20T16:06:18;36.87;;;28.40;;
48205;SDS011;33995;48.202;16.260;2022-11-20T16:08:47;37.40;;;28.43;;
48205;SDS011;33995;48.202;16.260;2022-11-20T16:11:17;39.23;;;30.47;;
48205;SDS011;33995;48.202;16.260;2022-11-20T16:13:46;40.40;;;30.50;;
48205;SDS011;33995;48.202;16.260;2022-11-20T16:16:34;40.67;;;30.93;;
48205;SDS011;33995;48.202;16.260;2022-11-20T16:19:05;53.43;;;35.23;;
48205;SDS011;33995;48.202;16.260;2022-11-20T16:21:35;39.37;;;30.07;;
48205;SDS011;33995;48.202;16.260;2022-11-20T16:24:08;42.40;;;31.67;;
48205;SDS011;33995;48.202;16.260;2022-11-20T16:26:41;39.93;;;30.13;;